createdAt,value
2017-05-27T00:00:39.847Z,0
2017-05-27T00:01:20.450Z,0
2017-05-27T00:02:01.026Z,0
2017-05-27T00:02:41.604Z,0
2017-05-27T00:03:22.211Z,0
2017-05-27T00:04:02.800Z,0
2017-05-27T00:04:43.389Z,0
2017-05-27T00:05:23.971Z,0
2017-05-27T00:06:04.546Z,0
2017-05-27T00:06:45.145Z,0
2017-05-27T00:07:25.716Z,0
2017-05-27T00:08:06.294Z,0
2017-05-27T00:08:46.889Z,0
2017-05-27T00:09:27.477Z,0
2017-05-27T00:10:08.057Z,0
2017-05-27T00:10:48.643Z,0
2017-05-27T00:11:29.243Z,0
2017-05-27T00:12:09.851Z,0
2017-05-27T00:12:50.441Z,0
2017-05-27T00:13:31.045Z,0
2017-05-27T00:14:11.656Z,0
2017-05-27T00:14:52.241Z,0
2017-05-27T00:15:32.813Z,0
2017-05-27T00:16:13.404Z,0
2017-05-27T00:16:53.995Z,0
2017-05-27T00:17:34.584Z,0
2017-05-27T00:18:15.190Z,0
2017-05-27T00:18:55.761Z,0
2017-05-27T00:19:36.385Z,0
2017-05-27T00:20:16.958Z,0
2017-05-27T00:20:57.542Z,0
2017-05-27T00:21:38.114Z,0
2017-05-27T00:22:18.701Z,0
2017-05-27T00:22:59.279Z,0
2017-05-27T00:23:39.855Z,0
2017-05-27T00:24:20.448Z,0
2017-05-27T00:25:01.023Z,0
2017-05-27T00:25:41.612Z,0
2017-05-27T00:26:22.234Z,0
2017-05-27T00:27:02.817Z,0
2017-05-27T00:27:43.406Z,0
2017-05-27T00:28:23.990Z,0
2017-05-27T00:29:04.580Z,0
2017-05-27T00:29:45.186Z,0
2017-05-27T00:30:25.814Z,0
2017-05-27T00:31:06.406Z,0
2017-05-27T00:31:46.984Z,0
2017-05-27T00:32:27.577Z,0
2017-05-27T00:33:08.221Z,0
2017-05-27T00:33:48.808Z,0
2017-05-27T00:34:29.390Z,0
2017-05-27T00:35:09.979Z,0
2017-05-27T00:35:50.562Z,0
2017-05-27T00:36:31.152Z,0
2017-05-27T00:37:11.742Z,0
2017-05-27T00:37:52.330Z,0
2017-05-27T00:38:32.907Z,0
2017-05-27T00:39:13.509Z,0
2017-05-27T00:39:54.090Z,0
2017-05-27T00:40:34.693Z,0
2017-05-27T00:41:15.278Z,0
2017-05-27T00:41:55.866Z,0
2017-05-27T00:42:36.441Z,0
2017-05-27T00:43:17.022Z,0
2017-05-27T00:43:57.624Z,0
2017-05-27T00:44:38.203Z,0
2017-05-27T00:45:18.784Z,0
2017-05-27T00:45:59.361Z,0
2017-05-27T00:46:39.958Z,0
2017-05-27T00:47:20.535Z,0
2017-05-27T00:48:01.124Z,0
2017-05-27T00:48:41.727Z,0
2017-05-27T00:49:22.319Z,0
2017-05-27T00:50:02.905Z,0
2017-05-27T00:50:43.494Z,0
2017-05-27T00:51:24.074Z,0
2017-05-27T00:52:04.669Z,0
2017-05-27T00:52:45.249Z,0
2017-05-27T00:53:25.836Z,0
2017-05-27T00:54:06.422Z,0
2017-05-27T00:54:47.013Z,0
2017-05-27T00:55:27.601Z,0
2017-05-27T00:56:08.186Z,0
2017-05-27T00:56:48.767Z,0
2017-05-27T00:57:32.954Z,0
2017-05-27T00:58:13.568Z,0
2017-05-27T00:58:54.146Z,0
2017-05-27T00:59:34.727Z,0
2017-05-27T01:00:15.348Z,0
2017-05-27T01:00:55.936Z,0
2017-05-27T01:01:36.519Z,0
2017-05-27T01:02:17.111Z,0
2017-05-27T01:02:57.690Z,0
2017-05-27T01:03:38.260Z,0
2017-05-27T01:04:18.844Z,0
2017-05-27T01:04:59.435Z,0
2017-05-27T01:05:40.025Z,0
2017-05-27T01:06:20.605Z,0
2017-05-27T01:07:01.184Z,0
2017-05-27T01:07:41.771Z,0
2017-05-27T01:08:22.359Z,0
2017-05-27T01:09:02.934Z,0
2017-05-27T01:09:43.529Z,0
2017-05-27T01:10:24.109Z,0
2017-05-27T01:11:04.686Z,0
2017-05-27T01:11:45.264Z,0
2017-05-27T01:12:25.855Z,0
2017-05-27T01:13:06.437Z,0
2017-05-27T01:13:47.022Z,0
2017-05-27T01:14:27.597Z,0
2017-05-27T01:15:08.193Z,0
2017-05-27T01:15:48.791Z,0
2017-05-27T01:16:29.383Z,0
2017-05-27T01:17:09.977Z,0
2017-05-27T01:17:50.555Z,0
2017-05-27T01:18:31.137Z,0
2017-05-27T01:19:11.746Z,0
2017-05-27T01:19:52.324Z,0
2017-05-27T01:20:32.899Z,0
2017-05-27T01:21:13.497Z,0
2017-05-27T01:21:54.063Z,0
2017-05-27T01:22:34.651Z,0
2017-05-27T01:23:15.256Z,0
2017-05-27T01:23:55.896Z,0
2017-05-27T01:24:36.472Z,0
2017-05-27T01:25:17.062Z,0
2017-05-27T01:25:57.667Z,0
2017-05-27T01:26:38.250Z,0
2017-05-27T01:27:18.831Z,0
2017-05-27T01:27:59.421Z,0
2017-05-27T01:28:40.007Z,0
2017-05-27T01:29:20.609Z,0
2017-05-27T01:30:01.200Z,0
2017-05-27T01:30:41.798Z,0
2017-05-27T01:31:22.373Z,0
2017-05-27T01:32:02.982Z,0
2017-05-27T01:32:43.567Z,0
2017-05-27T01:33:24.151Z,0
2017-05-27T01:34:04.756Z,0
2017-05-27T01:34:45.345Z,0
2017-05-27T01:35:25.930Z,0
2017-05-27T01:36:06.512Z,0
2017-05-27T01:36:47.090Z,0
2017-05-27T01:37:27.687Z,0
2017-05-27T01:38:08.268Z,0
2017-05-27T01:38:48.843Z,0
2017-05-27T01:39:29.420Z,0
2017-05-27T01:40:10.003Z,0
2017-05-27T01:40:50.589Z,0
2017-05-27T01:41:31.185Z,0
2017-05-27T01:42:11.781Z,0
2017-05-27T01:42:52.369Z,0
2017-05-27T01:43:32.962Z,0
2017-05-27T01:44:13.561Z,0
2017-05-27T01:44:54.147Z,0
2017-05-27T01:45:34.756Z,0
2017-05-27T01:46:15.345Z,0
2017-05-27T01:46:55.943Z,0
2017-05-27T01:47:36.528Z,0
2017-05-27T01:48:17.119Z,0
2017-05-27T01:48:57.707Z,0
2017-05-27T01:49:38.296Z,0
2017-05-27T01:50:18.902Z,0
2017-05-27T01:50:59.490Z,0
2017-05-27T01:51:40.076Z,0
2017-05-27T01:52:20.701Z,0
2017-05-27T01:53:01.283Z,0
2017-05-27T01:53:41.868Z,0
2017-05-27T01:54:22.450Z,0
2017-05-27T01:55:03.033Z,0
2017-05-27T01:55:43.626Z,0
2017-05-27T01:56:24.207Z,0
2017-05-27T01:57:04.791Z,0
2017-05-27T01:57:45.379Z,0
2017-05-27T01:58:25.956Z,0
2017-05-27T01:59:06.544Z,0
2017-05-27T01:59:47.215Z,0
2017-05-27T02:00:27.803Z,0
2017-05-27T02:01:08.374Z,0
2017-05-27T02:01:49.011Z,0
2017-05-27T02:02:29.596Z,0
2017-05-27T02:03:10.189Z,0
2017-05-27T02:03:50.777Z,0
2017-05-27T02:04:31.374Z,0
2017-05-27T02:05:11.982Z,0
2017-05-27T02:05:52.577Z,0
2017-05-27T02:06:33.160Z,0
2017-05-27T02:07:13.739Z,0
2017-05-27T02:07:54.339Z,0
2017-05-27T02:08:34.916Z,0
2017-05-27T02:09:15.519Z,0
2017-05-27T02:09:56.098Z,0
2017-05-27T02:10:36.825Z,0
2017-05-27T02:11:17.443Z,0
2017-05-27T02:11:58.035Z,0
2017-05-27T02:12:38.638Z,0
2017-05-27T02:13:19.233Z,0
2017-05-27T02:13:59.806Z,0
2017-05-27T02:14:40.382Z,4
2017-05-27T02:15:20.964Z,4
2017-05-27T02:16:01.549Z,4
2017-05-27T02:16:42.143Z,4
2017-05-27T02:17:22.720Z,0
2017-05-27T02:18:03.307Z,0
2017-05-27T02:18:43.903Z,0
2017-05-27T02:19:24.509Z,4
2017-05-27T02:20:05.101Z,4
2017-05-27T02:20:45.692Z,4
2017-05-27T02:21:26.272Z,0
2017-05-27T02:22:06.850Z,4
2017-05-27T02:22:47.450Z,4
2017-05-27T02:23:28.034Z,8
2017-05-27T02:24:08.653Z,4
2017-05-27T02:24:49.245Z,4
2017-05-27T02:25:29.831Z,8
2017-05-27T02:26:10.425Z,4
2017-05-27T02:26:51.024Z,8
2017-05-27T02:27:31.614Z,4
2017-05-27T02:28:12.268Z,8
2017-05-27T02:28:52.858Z,8
2017-05-27T02:29:33.469Z,8
2017-05-27T02:30:14.056Z,8
2017-05-27T02:30:54.657Z,12
2017-05-27T02:31:35.242Z,12
2017-05-27T02:32:15.820Z,12
2017-05-27T02:32:56.396Z,16
2017-05-27T02:33:36.991Z,16
2017-05-27T02:34:17.585Z,16
2017-05-27T02:34:58.161Z,16
2017-05-27T02:35:38.745Z,20
2017-05-27T02:36:19.350Z,20
2017-05-27T02:36:59.958Z,20
2017-05-27T02:37:40.543Z,24
2017-05-27T02:38:21.121Z,28
2017-05-27T02:39:01.713Z,28
2017-05-27T02:39:42.312Z,32
2017-05-27T02:40:22.911Z,32
2017-05-27T02:41:03.503Z,36
2017-05-27T02:41:44.088Z,40
2017-05-27T02:42:24.677Z,40
2017-05-27T02:43:05.249Z,44
2017-05-27T02:43:45.849Z,44
2017-05-27T02:44:26.436Z,48
2017-05-27T02:45:07.023Z,52
2017-05-27T02:45:47.608Z,52
2017-05-27T02:46:28.191Z,56
2017-05-27T02:47:08.768Z,60
2017-05-27T02:47:49.367Z,68
2017-05-27T02:48:29.958Z,72
2017-05-27T02:49:10.556Z,76
2017-05-27T02:49:51.148Z,80
2017-05-27T02:50:31.723Z,84
2017-05-27T02:51:12.308Z,84
2017-05-27T02:51:52.896Z,92
2017-05-27T02:52:33.491Z,96
2017-05-27T02:53:14.345Z,104
2017-05-27T02:53:54.935Z,108
2017-05-27T02:54:35.520Z,112
2017-05-27T02:55:16.104Z,116
2017-05-27T02:55:56.703Z,128
2017-05-27T02:56:37.306Z,132
2017-05-27T02:57:17.905Z,136
2017-05-27T02:57:58.508Z,144
2017-05-27T02:58:39.090Z,152
2017-05-27T02:59:19.679Z,160
2017-05-27T03:00:00.277Z,164
2017-05-27T03:00:40.883Z,172
2017-05-27T03:01:21.473Z,180
2017-05-27T03:02:02.055Z,188
2017-05-27T03:02:42.637Z,196
2017-05-27T03:03:23.220Z,200
2017-05-27T03:04:03.801Z,212
2017-05-27T03:04:44.376Z,220
2017-05-27T03:05:24.989Z,228
2017-05-27T03:06:05.574Z,240
2017-05-27T03:06:46.158Z,248
2017-05-27T03:07:26.763Z,252
2017-05-27T03:08:07.345Z,264
2017-05-27T03:08:47.949Z,276
2017-05-27T03:09:28.527Z,284
2017-05-27T03:10:09.164Z,292
2017-05-27T03:10:49.761Z,300
2017-05-27T03:11:30.349Z,312
2017-05-27T03:12:10.954Z,324
2017-05-27T03:12:51.575Z,328
2017-05-27T03:13:32.163Z,340
2017-05-27T03:14:12.748Z,352
2017-05-27T03:14:53.337Z,360
2017-05-27T03:15:33.924Z,372
2017-05-27T03:16:14.515Z,384
2017-05-27T03:16:55.097Z,392
2017-05-27T03:17:35.692Z,400
2017-05-27T03:18:16.265Z,412
2017-05-27T03:18:56.845Z,420
2017-05-27T03:19:37.435Z,432
2017-05-27T03:20:18.022Z,444
2017-05-27T03:20:58.606Z,456
2017-05-27T03:21:39.184Z,468
2017-05-27T03:22:19.766Z,476
2017-05-27T03:23:00.414Z,488
2017-05-27T03:23:41.007Z,496
2017-05-27T03:24:21.587Z,508
2017-05-27T03:25:02.183Z,520
2017-05-27T03:25:42.834Z,532
2017-05-27T03:26:23.504Z,540
2017-05-27T03:27:04.146Z,552
2017-05-27T03:27:44.729Z,560
2017-05-27T03:28:25.348Z,572
2017-05-27T03:29:05.940Z,584
2017-05-27T03:29:46.520Z,592
2017-05-27T03:30:27.142Z,604
2017-05-27T03:31:07.736Z,616
2017-05-27T03:31:48.323Z,624
2017-05-27T03:32:28.973Z,632
2017-05-27T03:33:09.557Z,644
2017-05-27T03:33:50.140Z,656
2017-05-27T03:34:30.718Z,664
2017-05-27T03:35:11.294Z,676
2017-05-27T03:35:51.881Z,688
2017-05-27T03:36:32.465Z,700
2017-05-27T03:37:13.047Z,708
2017-05-27T03:37:53.639Z,720
2017-05-27T03:38:34.242Z,732
2017-05-27T03:39:14.816Z,740
2017-05-27T03:39:55.417Z,752
2017-05-27T03:40:36.034Z,764
2017-05-27T03:41:16.625Z,776
2017-05-27T03:41:57.206Z,784
2017-05-27T03:42:37.793Z,796
2017-05-27T03:43:18.383Z,804
2017-05-27T03:43:58.975Z,812
2017-05-27T03:44:39.566Z,824
2017-05-27T03:45:20.156Z,836
2017-05-27T03:46:00.747Z,844
2017-05-27T03:46:41.341Z,852
2017-05-27T03:47:21.930Z,860
2017-05-27T03:48:02.519Z,872
2017-05-27T03:48:43.103Z,884
2017-05-27T03:49:23.684Z,896
2017-05-27T03:50:04.277Z,904
2017-05-27T03:50:44.879Z,916
2017-05-27T03:51:25.475Z,924
2017-05-27T03:52:06.055Z,932
2017-05-27T03:52:46.943Z,944
2017-05-27T03:53:27.298Z,952
2017-05-27T03:54:07.915Z,964
2017-05-27T03:54:48.514Z,972
2017-05-27T03:55:29.114Z,984
2017-05-27T03:56:09.697Z,992
2017-05-27T03:56:50.278Z,1004
2017-05-27T03:57:30.867Z,1012
2017-05-27T03:58:11.488Z,1020
2017-05-27T03:58:52.073Z,1028
2017-05-27T03:59:32.731Z,1040
2017-05-27T04:00:13.315Z,1048
2017-05-27T04:00:53.901Z,1060
2017-05-27T04:01:34.487Z,1072
2017-05-27T04:02:15.071Z,1076
2017-05-27T04:02:55.662Z,1088
2017-05-27T04:03:36.249Z,1100
2017-05-27T04:04:16.843Z,1108
2017-05-27T04:04:57.402Z,1116
2017-05-27T04:05:38.566Z,1128
2017-05-27T04:06:19.152Z,1136
2017-05-27T04:06:59.733Z,1148
2017-05-27T04:07:40.318Z,1160
2017-05-27T04:08:20.928Z,1168
2017-05-27T04:09:01.502Z,1176
2017-05-27T04:09:42.086Z,1184
2017-05-27T04:10:22.688Z,1196
2017-05-27T04:11:03.283Z,1204
2017-05-27T04:11:43.860Z,1216
2017-05-27T04:12:24.441Z,1224
2017-05-27T04:13:05.034Z,1236
2017-05-27T04:13:45.630Z,1244
2017-05-27T04:14:26.211Z,1252
2017-05-27T04:15:06.791Z,1260
2017-05-27T04:15:47.382Z,1276
2017-05-27T04:16:27.965Z,1288
2017-05-27T04:17:08.551Z,1296
2017-05-27T04:17:49.133Z,1304
2017-05-27T04:18:29.723Z,1312
2017-05-27T04:19:10.312Z,1320
2017-05-27T04:19:50.901Z,1332
2017-05-27T04:20:31.474Z,1344
2017-05-27T04:21:12.066Z,1356
2017-05-27T04:21:52.654Z,1368
2017-05-27T04:22:33.249Z,1380
2017-05-27T04:23:13.861Z,1388
2017-05-27T04:23:54.460Z,1404
2017-05-27T04:24:35.051Z,1412
2017-05-27T04:25:15.691Z,1420
2017-05-27T04:25:56.223Z,1436
2017-05-27T04:26:36.817Z,1444
2017-05-27T04:27:17.467Z,1452
2017-05-27T04:27:58.047Z,1460
2017-05-27T04:28:38.625Z,1472
2017-05-27T04:29:19.208Z,1476
2017-05-27T04:29:59.790Z,1484
2017-05-27T04:30:40.374Z,1492
2017-05-27T04:31:20.962Z,1508
2017-05-27T04:32:01.545Z,1524
2017-05-27T04:32:42.145Z,1528
2017-05-27T04:33:22.723Z,1536
2017-05-27T04:34:03.311Z,1552
2017-05-27T04:34:43.904Z,1568
2017-05-27T04:35:24.493Z,1572
2017-05-27T04:36:05.072Z,1580
2017-05-27T04:36:45.658Z,1592
2017-05-27T04:37:26.244Z,1608
2017-05-27T04:38:06.825Z,1612
2017-05-27T04:38:47.412Z,1624
2017-05-27T04:39:28.013Z,1636
2017-05-27T04:40:08.609Z,1644
2017-05-27T04:40:49.196Z,1652
2017-05-27T04:41:29.776Z,1664
2017-05-27T04:42:10.375Z,1684
2017-05-27T04:42:50.965Z,1696
2017-05-27T04:43:31.546Z,1712
2017-05-27T04:44:12.127Z,1716
2017-05-27T04:44:52.715Z,1736
2017-05-27T04:45:33.408Z,1736
2017-05-27T04:46:14.011Z,1752
2017-05-27T04:46:54.604Z,1760
2017-05-27T04:47:35.206Z,1772
2017-05-27T04:48:15.789Z,1784
2017-05-27T04:48:56.388Z,1792
2017-05-27T04:49:36.980Z,1796
2017-05-27T04:50:17.566Z,1804
2017-05-27T04:50:58.156Z,1816
2017-05-27T04:51:38.732Z,1816
2017-05-27T04:52:19.326Z,1836
2017-05-27T04:52:59.912Z,1844
2017-05-27T04:53:40.499Z,1864
2017-05-27T04:54:21.084Z,1876
2017-05-27T04:55:01.669Z,1880
2017-05-27T04:55:42.246Z,1892
2017-05-27T04:56:22.822Z,1904
2017-05-27T04:57:03.420Z,1908
2017-05-27T04:57:44.016Z,1928
2017-05-27T04:58:24.628Z,1944
2017-05-27T04:59:05.219Z,1956
2017-05-27T04:59:45.812Z,1972
2017-05-27T05:00:26.413Z,1984
2017-05-27T05:01:06.991Z,1996
2017-05-27T05:01:47.591Z,2024
2017-05-27T05:02:28.194Z,2036
2017-05-27T05:03:08.783Z,2044
2017-05-27T05:03:49.455Z,2052
2017-05-27T05:04:30.086Z,2068
2017-05-27T05:05:10.680Z,2084
2017-05-27T05:05:51.293Z,2096
2017-05-27T05:06:31.917Z,2112
2017-05-27T05:07:12.543Z,2132
2017-05-27T05:07:53.116Z,2132
2017-05-27T05:08:33.907Z,2148
2017-05-27T05:09:14.498Z,2164
2017-05-27T05:09:55.081Z,2172
2017-05-27T05:10:35.801Z,2184
2017-05-27T05:11:16.405Z,2212
2017-05-27T05:11:56.988Z,2244
2017-05-27T05:12:37.583Z,2256
2017-05-27T05:13:18.165Z,2276
2017-05-27T05:13:58.759Z,2300
2017-05-27T05:14:39.341Z,2320
2017-05-27T05:15:19.917Z,2344
2017-05-27T05:16:00.504Z,2376
2017-05-27T05:16:41.093Z,2396
2017-05-27T05:17:21.713Z,2420
2017-05-27T05:18:02.269Z,2456
2017-05-27T05:18:42.851Z,2488
2017-05-27T05:19:23.435Z,2528
2017-05-27T05:20:04.028Z,2580
2017-05-27T05:20:46.549Z,2636
2017-05-27T05:21:37.362Z,2728
2017-05-27T05:22:18.408Z,2808
2017-05-27T05:23:07.349Z,2904
2017-05-27T05:23:58.212Z,3008
2017-05-27T05:24:46.742Z,3108
2017-05-27T05:25:32.491Z,3208
2017-05-27T05:26:13.832Z,11948
2017-05-27T05:26:55.089Z,45056
2017-05-27T05:27:52.123Z,89248
2017-05-27T05:28:34.518Z,100000
2017-05-27T05:29:15.149Z,98880
2017-05-27T05:29:55.736Z,97536
2017-05-27T05:30:36.336Z,95968
2017-05-27T05:31:16.921Z,94208
2017-05-27T05:31:57.518Z,93600
2017-05-27T05:32:38.109Z,95744
2017-05-27T05:33:18.705Z,97344
2017-05-27T05:33:59.283Z,97600
2017-05-27T05:34:39.872Z,96000
2017-05-27T05:35:20.493Z,95904
2017-05-27T05:36:01.079Z,95744
2017-05-27T05:36:41.684Z,97280
2017-05-27T05:37:22.266Z,97472
2017-05-27T05:38:02.846Z,94912
2017-05-27T05:38:43.432Z,90752
2017-05-27T05:39:24.040Z,90048
2017-05-27T05:40:04.645Z,92192
2017-05-27T05:40:45.296Z,94912
2017-05-27T05:41:25.836Z,94816
2017-05-27T05:42:06.430Z,92768
2017-05-27T05:42:47.008Z,89728
2017-05-27T05:43:27.973Z,87936
2017-05-27T05:44:08.568Z,87808
2017-05-27T05:44:49.181Z,88096
2017-05-27T05:45:29.778Z,90144
2017-05-27T05:46:10.381Z,91648
2017-05-27T05:46:50.971Z,92064
2017-05-27T05:47:31.565Z,92640
2017-05-27T05:48:12.171Z,93984
2017-05-27T05:48:52.771Z,95072
2017-05-27T05:49:33.370Z,95488
2017-05-27T05:50:14.319Z,96896
2017-05-27T05:50:54.919Z,96768
2017-05-27T05:51:35.738Z,96800
2017-05-27T05:52:16.370Z,97152
2017-05-27T05:52:56.968Z,97824
2017-05-27T05:53:37.917Z,98080
2017-05-27T05:54:18.735Z,98752
2017-05-27T05:54:59.346Z,98816
2017-05-27T05:55:39.949Z,99008
2017-05-27T05:56:20.561Z,100896
2017-05-27T05:57:01.160Z,102720
2017-05-27T05:57:41.776Z,102624
2017-05-27T05:58:22.371Z,102240
2017-05-27T05:59:02.977Z,102144
2017-05-27T05:59:43.569Z,101760
2017-05-27T06:00:24.181Z,101760
2017-05-27T06:01:04.776Z,101184
2017-05-27T06:01:45.391Z,101696
2017-05-27T06:02:25.994Z,102464
2017-05-27T06:03:06.593Z,102784
2017-05-27T06:03:47.183Z,103360
2017-05-27T06:04:27.791Z,103264
2017-05-27T06:05:08.389Z,102464
2017-05-27T06:05:48.996Z,102304
2017-05-27T06:06:29.598Z,100960
2017-05-27T06:07:10.196Z,102016
2017-05-27T06:07:50.795Z,102816
2017-05-27T06:08:31.432Z,102368
2017-05-27T06:09:12.028Z,102272
2017-05-27T06:09:52.623Z,100576
2017-05-27T06:10:33.270Z,98784
2017-05-27T06:11:13.886Z,98560
2017-05-27T06:11:54.616Z,99296
2017-05-27T06:12:35.220Z,100160
2017-05-27T06:13:15.819Z,99328
2017-05-27T06:13:56.449Z,97248
2017-05-27T06:14:37.065Z,98464
2017-05-27T06:15:17.661Z,98240
2017-05-27T06:15:58.248Z,99552
2017-05-27T06:16:38.864Z,98720
2017-05-27T06:17:19.502Z,96384
2017-05-27T06:18:00.111Z,95488
2017-05-27T06:18:40.717Z,96384
2017-05-27T06:19:21.550Z,95072
2017-05-27T06:20:02.135Z,95936
2017-05-27T06:20:42.770Z,96800
2017-05-27T06:21:23.367Z,97056
2017-05-27T06:22:03.962Z,97344
2017-05-27T06:22:44.551Z,99264
2017-05-27T06:23:25.172Z,99840
2017-05-27T06:24:05.773Z,99040
2017-05-27T06:24:46.375Z,95904
2017-05-27T06:25:26.983Z,92288
2017-05-27T06:26:07.581Z,91168
2017-05-27T06:26:48.233Z,90144
2017-05-27T06:27:28.836Z,91232
2017-05-27T06:28:09.438Z,96064
2017-05-27T06:28:50.156Z,101056
2017-05-27T06:29:30.763Z,103936
2017-05-27T06:30:11.366Z,104064
2017-05-27T06:30:51.960Z,99520
2017-05-27T06:31:32.557Z,93792
2017-05-27T06:32:13.168Z,90912
2017-05-27T06:32:53.762Z,93568
2017-05-27T06:33:34.356Z,97856
2017-05-27T06:34:14.958Z,98240
2017-05-27T06:34:55.586Z,95808
2017-05-27T06:35:36.191Z,94624
2017-05-27T06:36:16.787Z,95552
2017-05-27T06:36:57.377Z,97760
2017-05-27T06:37:37.966Z,97504
2017-05-27T06:38:18.622Z,95840
2017-05-27T06:38:59.217Z,94176
2017-05-27T06:39:40.007Z,94016
2017-05-27T06:40:20.595Z,93792
2017-05-27T06:41:01.386Z,94656
2017-05-27T06:41:41.976Z,95648
2017-05-27T06:42:22.569Z,95488
2017-05-27T06:43:03.167Z,94848
2017-05-27T06:43:43.778Z,95584
2017-05-27T06:44:24.398Z,94528
2017-05-27T06:45:05.000Z,93728
2017-05-27T06:45:45.603Z,93152
2017-05-27T06:46:26.443Z,95168
2017-05-27T06:47:07.053Z,96864
2017-05-27T06:47:47.643Z,96032
2017-05-27T06:48:30.085Z,96512
2017-05-27T06:49:12.112Z,96672
2017-05-27T06:49:55.085Z,95680
2017-05-27T06:50:35.943Z,94080
2017-05-27T06:51:16.561Z,93632
2017-05-27T06:51:57.168Z,95136
2017-05-27T06:52:37.779Z,94368
2017-05-27T06:53:18.391Z,94560
2017-05-27T06:53:59.148Z,93600
2017-05-27T06:54:39.750Z,94176
2017-05-27T06:55:20.358Z,94464
2017-05-27T06:56:01.181Z,93504
2017-05-27T06:56:42.500Z,89888
2017-05-27T06:57:23.109Z,88416
2017-05-27T06:58:03.708Z,88032
2017-05-27T06:58:44.300Z,87264
2017-05-27T06:59:24.900Z,87488
2017-05-27T07:00:05.491Z,88544
2017-05-27T07:00:46.090Z,87744
2017-05-27T07:01:26.694Z,87744
2017-05-27T07:02:07.289Z,87328
2017-05-27T07:02:47.888Z,86432
2017-05-27T07:03:28.524Z,86528
2017-05-27T07:04:09.125Z,88128
2017-05-27T07:04:49.738Z,81696
2017-05-27T07:05:30.336Z,78080
2017-05-27T07:06:10.929Z,75392
2017-05-27T07:06:51.538Z,83328
2017-05-27T07:07:32.193Z,85664
2017-05-27T07:08:12.788Z,89216
2017-05-27T07:08:53.411Z,88736
2017-05-27T07:09:34.011Z,90400
2017-05-27T07:10:14.620Z,89888
2017-05-27T07:10:55.240Z,90752
2017-05-27T07:11:35.847Z,92512
2017-05-27T07:12:16.454Z,93216
2017-05-27T07:12:57.042Z,89632
2017-05-27T07:13:37.659Z,89952
2017-05-27T07:14:18.249Z,91264
2017-05-27T07:14:58.872Z,92736
2017-05-27T07:15:39.482Z,91648
2017-05-27T07:16:20.127Z,91520
2017-05-27T07:17:00.725Z,93280
2017-05-27T07:17:41.310Z,93312
2017-05-27T07:18:21.914Z,93728
2017-05-27T07:19:02.509Z,92928
2017-05-27T07:19:43.104Z,91936
2017-05-27T07:20:23.701Z,92160
2017-05-27T07:21:04.303Z,91200
2017-05-27T07:21:44.915Z,87968
2017-05-27T07:22:25.507Z,88768
2017-05-27T07:23:06.151Z,89856
2017-05-27T07:23:46.701Z,90496
2017-05-27T07:24:27.303Z,92192
2017-05-27T07:25:07.920Z,93856
2017-05-27T07:25:48.520Z,94048
2017-05-27T07:26:29.123Z,93504
2017-05-27T07:27:09.722Z,92736
2017-05-27T07:27:50.415Z,94048
2017-05-27T07:28:31.019Z,94592
2017-05-27T07:29:11.614Z,94528
2017-05-27T07:29:52.211Z,91104
2017-05-27T07:30:32.912Z,89344
2017-05-27T07:31:13.494Z,87744
2017-05-27T07:31:54.115Z,91008
2017-05-27T07:32:34.719Z,92192
2017-05-27T07:33:21.178Z,94752
2017-05-27T07:34:14.656Z,93600
2017-05-27T07:34:59.814Z,93952
2017-05-27T07:35:47.644Z,93760
2017-05-27T07:36:28.275Z,94656
2017-05-27T07:37:08.887Z,95776
2017-05-27T07:37:49.498Z,95200
2017-05-27T07:38:44.339Z,93984
2017-05-27T07:39:31.268Z,93056
2017-05-27T07:40:14.126Z,93312
2017-05-27T07:41:13.038Z,95616
2017-05-27T07:42:00.770Z,96032
2017-05-27T07:42:57.301Z,97024
2017-05-27T07:43:57.225Z,96928
2017-05-27T07:44:48.010Z,95968
2017-05-27T07:45:34.068Z,95840
2017-05-27T07:46:18.407Z,96992
2017-05-27T07:47:04.535Z,98624
2017-05-27T07:47:47.194Z,99456
2017-05-27T07:48:36.341Z,98752
2017-05-27T07:49:23.282Z,100896
2017-05-27T07:50:06.004Z,100384
2017-05-27T07:50:53.231Z,101088
2017-05-27T07:51:38.037Z,104352
2017-05-27T07:52:24.819Z,102688
2017-05-27T07:53:09.267Z,102304
2017-05-27T07:54:07.403Z,106432
2017-05-27T07:54:48.019Z,107904
2017-05-27T07:55:35.336Z,106848
2017-05-27T07:56:21.169Z,104992
2017-05-27T07:57:02.168Z,99584
2017-05-27T07:57:48.338Z,80224
2017-05-27T07:58:31.341Z,46656
2017-05-27T07:59:11.986Z,22624
2017-05-27T07:59:52.598Z,16864
2017-05-27T08:00:34.841Z,16192
2017-05-27T08:01:15.451Z,15488
2017-05-27T08:01:56.359Z,15040
2017-05-27T08:02:36.943Z,14816
2017-05-27T08:03:17.545Z,14484
2017-05-27T08:03:59.999Z,14252
2017-05-27T08:04:40.616Z,14016
2017-05-27T08:05:21.217Z,13824
2017-05-27T08:06:01.816Z,13576
2017-05-27T08:06:42.432Z,13360
2017-05-27T08:07:24.895Z,13136
2017-05-27T08:08:05.522Z,12868
2017-05-27T08:08:46.111Z,12616
2017-05-27T08:09:26.712Z,12384
2017-05-27T08:10:07.318Z,12076
2017-05-27T08:10:48.704Z,11804
2017-05-27T08:11:30.370Z,11544
2017-05-27T08:12:10.953Z,11280
2017-05-27T08:12:51.549Z,11028
2017-05-27T08:13:32.144Z,10784
2017-05-27T08:14:13.061Z,10560
2017-05-27T08:14:53.664Z,10304
2017-05-27T08:15:34.263Z,10052
2017-05-27T08:16:16.991Z,9776
2017-05-27T08:16:57.595Z,9552
2017-05-27T08:17:38.194Z,9332
2017-05-27T08:18:18.788Z,9120
2017-05-27T08:19:04.884Z,8920
2017-05-27T08:19:45.473Z,8736
2017-05-27T08:20:26.064Z,8592
2017-05-27T08:21:06.669Z,8444
2017-05-27T08:21:47.293Z,8288
2017-05-27T08:22:34.155Z,8100
2017-05-27T08:23:18.610Z,7948
2017-05-27T08:24:02.249Z,7824
2017-05-27T08:24:46.645Z,7668
2017-05-27T08:25:36.411Z,7524
2017-05-27T08:26:17.582Z,7388
2017-05-27T08:26:58.177Z,7284
2017-05-27T08:27:38.764Z,7180
2017-05-27T08:28:19.951Z,7080
2017-05-27T08:29:00.559Z,6984
2017-05-27T08:29:42.328Z,6888
2017-05-27T08:30:24.280Z,6788
2017-05-27T08:31:06.438Z,6688
2017-05-27T08:31:56.768Z,6580
2017-05-27T08:32:43.580Z,6472
2017-05-27T08:33:29.047Z,6384
2017-05-27T08:34:22.586Z,6292
2017-05-27T08:35:04.299Z,6208
2017-05-27T08:35:46.228Z,6116
2017-05-27T08:36:29.141Z,6024
2017-05-27T08:37:23.011Z,5964
2017-05-27T08:38:22.267Z,5872
2017-05-27T08:39:19.445Z,5768
2017-05-27T08:40:22.285Z,5684
2017-05-27T08:41:09.975Z,5584
2017-05-27T08:41:58.368Z,5524
2017-05-27T08:43:00.925Z,5452
2017-05-27T08:44:00.912Z,5388
2017-05-27T08:44:58.796Z,5304
2017-05-27T08:45:42.829Z,5232
2017-05-27T08:46:24.299Z,5160
2017-05-27T08:47:27.545Z,5080
2017-05-27T08:48:11.312Z,5028
2017-05-27T08:48:52.612Z,4976
2017-05-27T08:49:33.876Z,4940
2017-05-27T08:50:14.828Z,4872
2017-05-27T08:50:56.211Z,4836
2017-05-27T08:51:37.497Z,4792
2017-05-27T08:52:18.758Z,4740
2017-05-27T08:53:00.122Z,4692
2017-05-27T08:53:41.782Z,4648
2017-05-27T08:54:23.029Z,4608
2017-05-27T08:55:04.291Z,4572
2017-05-27T08:55:45.376Z,4536
2017-05-27T08:56:26.965Z,4496
2017-05-27T08:57:08.331Z,4460
2017-05-27T08:57:49.536Z,4420
2017-05-27T08:58:30.895Z,4384
2017-05-27T08:59:12.274Z,4352
2017-05-27T08:59:53.649Z,4316
2017-05-27T09:00:34.899Z,4288
2017-05-27T09:01:16.179Z,4256
2017-05-27T09:01:57.982Z,4220
2017-05-27T09:02:44.678Z,4176
2017-05-27T09:03:27.981Z,4144
2017-05-27T09:04:11.107Z,4116
2017-05-27T09:04:56.466Z,4092
2017-05-27T09:05:38.775Z,4052
2017-05-27T09:06:20.169Z,4028
2017-05-27T09:07:01.514Z,4004
2017-05-27T09:07:42.837Z,3968
2017-05-27T09:08:24.193Z,3936
2017-05-27T09:09:05.489Z,3916
2017-05-27T09:09:46.835Z,3892
2017-05-27T09:10:28.043Z,3864
2017-05-27T09:11:09.406Z,3836
2017-05-27T09:11:50.338Z,3812
2017-05-27T09:12:31.691Z,3784
2017-05-27T09:13:12.410Z,3764
2017-05-27T09:13:53.816Z,3744
2017-05-27T09:14:35.347Z,3724
2017-05-27T09:15:16.866Z,3700
2017-05-27T09:15:58.141Z,3684
2017-05-27T09:16:39.549Z,3648
2017-05-27T09:17:25.522Z,3648
2017-05-27T09:18:15.110Z,3596
2017-05-27T09:19:13.361Z,3304
2017-05-27T09:19:59.791Z,3300
2017-05-27T09:20:41.010Z,3288
2017-05-27T09:21:22.109Z,3256
2017-05-27T09:22:10.945Z,3264
2017-05-27T09:22:52.310Z,3260
2017-05-27T09:23:33.591Z,3248